Time;durP1;ratioP1;P1;durP2;ratioP2;P2;SDS_P1;SDS_P2;PMS_P1;PMS_P2;Temp;Humidity;BMP_temperature;BMP_pressure;BME280_temperature;BME280_humidity;BME280_pressure;Samples;Min_cycle;Max_cycle;Signal;HPM_P1;HPM_P2
2022/05/19 00:01:59;;;;;;;9.98;3.33;;;18.00;99.90;;;;;;5037014;28;20029;-76
2022/05/19 00:04:28;;;;;;;6.45;3.10;;;18.00;99.90;;;;;;5036983;28;20022;-76
2022/05/19 00:06:53;;;;;;;;;;;18.00;99.90;;;;;;5036054;28;20418;-76
2022/05/19 00:09:20;;;;;;;10.35;2.97;;;18.00;99.90;;;;;;5035939;28;19916;-76
2022/05/19 00:11:46;;;;;;;7.97;3.28;;;18.00;99.90;;;;;;5035771;28;20037;-76
2022/05/19 00:14:14;;;;;;;8.95;3.25;;;18.00;99.90;;;;;;5035742;28;20025;-76
2022/05/19 00:16:40;;;;;;;6.05;3.13;;;17.20;99.90;;;;;;5035853;28;20038;-76
2022/05/19 00:19:07;;;;;;;8.70;4.07;;;17.90;99.90;;;;;;5036774;28;20029;-76
2022/05/19 00:21:33;;;;;;;8.32;3.85;;;17.90;99.90;;;;;;5036545;28;20025;-76
2022/05/19 00:23:58;;;;;;;6.57;3.05;;;17.90;99.90;;;;;;5036918;28;20488;-76
2022/05/19 00:26:24;;;;;;;4.82;3.13;;;18.10;99.90;;;;;;5037388;28;20044;-76
2022/05/19 00:28:50;;;;;;;8.70;3.47;;;17.80;99.90;;;;;;5037281;28;20499;-76
2022/05/19 00:31:16;;;;;;;8.23;3.38;;;17.60;99.90;;;;;;5037396;28;20088;-76
2022/05/19 00:33:43;;;;;;;5.53;3.38;;;17.70;99.90;;;;;;5037483;28;20112;-76
2022/05/19 00:36:20;;;;;;;8.25;3.80;;;17.70;99.90;;;;;;5036681;28;20044;-76
2022/05/19 00:38:45;;;;;;;8.90;3.42;;;17.70;99.90;;;;;;5036671;28;20037;-76
2022/05/19 00:41:13;;;;;;;10.90;3.65;;;17.70;99.90;;;;;;5037484;28;20025;-75
2022/05/19 00:43:44;;;;;;;7.35;3.05;;;17.60;99.90;;;;;;5036462;28;20084;-76
2022/05/19 00:46:21;;;;;;;5.45;3.10;;;17.60;99.90;;;;;;5036545;28;20017;-76
2022/05/19 00:49:02;;;;;;;4.70;2.80;;;17.60;99.90;;;;;;5036598;28;20406;-77
2022/05/19 00:51:53;;;;;;;6.60;3.35;;;17.60;99.90;;;;;;5036261;28;20025;-76
2022/05/19 00:54:25;;;;;;;8.65;4.18;;;17.60;99.90;;;;;;5016930;28;20039;-76
2022/05/19 00:56:59;;;;;;;5.75;3.03;;;17.70;99.90;;;;;;5036134;28;20444;-76
2022/05/19 00:59:33;;;;;;;7.47;4.18;;;17.60;99.90;;;;;;5036703;28;20053;-76
2022/05/19 01:01:59;;;;;;;8.00;4.13;;;17.60;99.90;;;;;;5035412;28;20091;-76
2022/05/19 01:04:36;;;;;;;8.35;3.55;;;18.90;99.90;;;;;;5036039;28;20434;-76
2022/05/19 01:07:07;;;;;;;7.40;3.55;;;17.60;99.90;;;;;;5035960;28;20049;-76
2022/05/19 01:09:35;;;;;;;10.38;3.50;;;17.60;99.90;;;;;;5034520;28;20022;-76
2022/05/19 01:12:06;;;;;;;6.65;3.50;;;17.50;99.90;;;;;;5036046;28;20498;-76
2022/05/19 01:14:33;;;;;;;7.53;3.40;;;17.50;99.90;;;;;;5035901;28;20388;-75
2022/05/19 01:16:59;;;;;;;7.78;4.13;;;17.50;99.90;;;;;;5035876;28;20029;-76
2022/05/19 01:19:33;;;;;;;8.13;4.18;;;17.40;99.90;;;;;;5036644;28;20037;-76
2022/05/19 01:22:16;;;;;;;11.05;4.78;;;17.40;99.90;;;;;;5034589;28;20117;-76
2022/05/19 01:25:04;;;;;;;9.65;4.13;;;17.40;99.90;;;;;;5035890;28;20108;-76
2022/05/19 01:27:31;;;;;;;6.88;4.32;;;17.40;99.90;;;;;;5036454;28;20022;-76
2022/05/19 01:29:57;;;;;;;7.13;4.28;;;17.40;99.90;;;;;;5035668;28;20033;-74
2022/05/19 01:32:28;;;;;;;10.73;4.32;;;17.40;99.90;;;;;;5034971;28;20036;-74
2022/05/19 01:34:58;;;;;;;8.48;4.00;;;17.40;99.90;;;;;;5036310;28;20101;-74
2022/05/19 01:37:24;;;;;;;8.57;4.53;;;17.40;99.90;;;;;;5035140;28;20029;-74
2022/05/19 01:39:54;;;;;;;8.20;4.88;;;17.40;99.90;;;;;;5035032;28;20029;-74
2022/05/19 01:42:35;;;;;;;12.32;4.90;;;17.30;99.90;;;;;;5034971;28;20053;-74
2022/05/19 01:45:33;;;;;;;11.20;5.47;;;17.30;99.90;;;;;;5036333;28;20024;-74
2022/05/19 01:48:09;;;;;;;11.00;5.05;;;17.30;99.90;;;;;;5028329;28;20477;-74
2022/05/19 01:50:55;;;;;;;9.55;5.30;;;17.40;99.90;;;;;;5036218;28;20025;-74
2022/05/19 01:53:41;;;;;;;15.70;5.10;;;17.40;99.90;;;;;;5036248;28;20017;-74
2022/05/19 01:56:28;;;;;;;12.20;4.90;;;17.40;99.90;;;;;;5035785;28;20084;-74
2022/05/19 01:59:12;;;;;;;7.32;5.03;;;17.50;99.90;;;;;;5035267;28;20460;-74
2022/05/19 02:01:40;;;;;;;10.48;5.05;;;17.50;99.90;;;;;;5035490;28;20025;-75
2022/05/19 02:04:17;;;;;;;9.15;4.65;;;17.60;99.90;;;;;;5035174;28;20412;-76
2022/05/19 02:06:52;;;;;;;16.13;6.07;;;17.50;99.90;;;;;;5035284;28;20022;-76
2022/05/19 02:09:25;;;;;;;11.60;5.10;;;17.60;99.90;;;;;;5035171;28;20029;-76
2022/05/19 02:11:56;;;;;;;10.07;5.40;;;17.60;99.90;;;;;;5035300;28;20052;-76
2022/05/19 02:14:36;;;;;;;9.95;5.40;;;17.70;99.90;;;;;;5035039;28;20562;-76
2022/05/19 02:17:09;;;;;;;13.85;5.88;;;17.70;99.90;;;;;;5034149;28;20061;-75
2022/05/19 02:19:44;;;;;;;15.38;6.43;;;17.70;99.90;;;;;;5034222;28;20477;-76
2022/05/19 02:22:13;;;;;;;13.35;6.38;;;17.80;99.90;;;;;;5032917;28;20116;-76
2022/05/19 02:24:46;;;;;;;18.35;7.72;;;17.90;99.90;;;;;;5034606;28;20026;-76
2022/05/19 02:27:52;;;;;;;14.93;7.18;;;18.00;99.90;;;;;;5035055;28;20026;-76
2022/05/19 02:30:27;;;;;;;16.50;8.15;;;18.00;99.90;;;;;;5034665;28;20057;-76
2022/05/19 02:32:53;;;;;;;18.33;7.10;;;18.10;99.90;;;;;;5034678;28;20025;-76
2022/05/19 02:35:19;;;;;;;16.25;7.63;;;18.20;99.90;;;;;;5032820;28;20170;-75
2022/05/19 02:37:45;;;;;;;12.38;7.22;;;18.20;99.90;;;;;;5034640;28;20029;-75
2022/05/19 02:40:14;;;;;;;13.10;7.53;;;18.30;99.90;;;;;;5033288;28;20029;-75
2022/05/19 02:42:40;;;;;;;13.90;7.10;;;18.30;99.90;;;;;;5034530;28;20075;-75
2022/05/19 02:45:07;;;;;;;17.10;7.63;;;18.30;99.90;;;;;;5033915;28;20021;-75
2022/05/19 02:47:32;;;;;;;14.95;6.55;;;18.40;99.90;;;;;;5034316;28;20025;-75
2022/05/19 02:49:58;;;;;;;10.95;6.50;;;18.40;99.90;;;;;;5035291;28;20135;-75
2022/05/19 02:52:25;;;;;;;13.63;7.32;;;18.50;99.90;;;;;;5032941;28;20381;-75
2022/05/19 02:54:51;;;;;;;10.63;6.50;;;18.60;99.90;;;;;;5034698;28;20441;-75
2022/05/19 02:57:18;;;;;;;11.52;6.25;;;18.60;99.90;;;;;;5034559;28;20053;-75
2022/05/19 02:59:44;;;;;;;14.10;7.93;;;18.80;99.90;;;;;;5032945;28;20026;-75
2022/05/19 03:02:11;;;;;;;22.35;10.18;;;18.90;99.90;;;;;;5035317;28;20256;-76
2022/05/19 03:04:38;;;;;;;20.58;10.07;;;19.00;99.90;;;;;;5034045;28;20131;-76
2022/05/19 03:07:05;;;;;;;24.70;11.73;;;19.20;99.90;;;;;;5034514;28;20025;-75
2022/05/19 03:09:31;;;;;;;14.60;8.93;;;19.10;99.90;;;;;;5033858;28;20025;-75
2022/05/19 03:11:56;;;;;;;26.25;8.60;;;19.00;99.90;;;;;;5034073;28;20036;-75
2022/05/19 03:14:22;;;;;;;7.43;3.63;;;18.80;99.90;;;;;;5034126;28;20485;-75
2022/05/19 03:16:47;;;;;;;10.13;2.65;;;18.40;99.90;;;;;;5034028;28;20488;-75
2022/05/19 03:19:15;;;;;;;20.95;2.45;;;18.30;99.90;;;;;;5033093;28;20033;-75
2022/05/19 03:21:42;;;;;;;6.38;1.60;;;18.10;99.90;;;;;;5034118;28;20028;-75
2022/05/19 03:24:10;;;;;;;2.65;0.50;;;18.00;99.90;;;;;;5033819;28;20045;-75
2022/05/19 03:26:36;;;;;;;4.47;0.10;;;18.10;99.90;;;;;;5034037;28;20582;-75
2022/05/19 03:29:03;;;;;;;3.22;1.05;;;17.80;99.90;;;;;;5033976;28;20026;-75
2022/05/19 03:31:29;;;;;;;2.65;0.00;;;17.90;99.90;;;;;;5032973;28;20037;-75
2022/05/19 03:33:55;;;;;;;0.63;0.32;;;17.80;99.90;;;;;;5035771;28;20041;-75
2022/05/19 03:36:20;;;;;;;4.68;0.25;;;17.80;99.90;;;;;;5038065;28;20120;-76
2022/05/19 03:38:46;;;;;;;0.22;0.00;;;17.70;99.90;;;;;;5037698;28;20099;-76
2022/05/19 03:41:12;;;;;;;1.02;0.20;;;17.70;99.90;;;;;;5037932;28;20101;-75
2022/05/19 03:43:38;;;;;;;1.13;0.00;;;17.70;99.90;;;;;;5038011;28;20056;-76
2022/05/19 03:46:06;;;;;;;1.02;0.10;;;17.70;99.90;;;;;;5036746;28;20022;-76
2022/05/19 03:48:34;;;;;;;4.32;0.52;;;17.60;99.90;;;;;;5036393;28;20025;-76
2022/05/19 03:50:59;;;;;;;1.50;0.10;;;17.60;99.90;;;;;;5036645;28;20026;-75
2022/05/19 03:53:28;;;;;;;0.52;0.13;;;17.60;99.90;;;;;;5037554;28;20036;-75
2022/05/19 03:55:54;;;;;;;0.35;0.10;;;17.50;99.90;;;;;;5036639;28;20426;-76
2022/05/19 03:58:20;;;;;;;1.95;0.03;;;17.40;99.90;;;;;;5037749;28;20017;-76
2022/05/19 04:00:46;;;;;;;1.83;0.25;;;17.40;99.90;;;;;;5036471;28;20033;-76
2022/05/19 04:03:12;;;;;;;1.85;0.10;;;17.40;99.90;;;;;;5036355;28;20496;-75
2022/05/19 04:05:37;;;;;;;2.63;0.00;;;17.40;99.90;;;;;;5037777;28;20045;-76
2022/05/19 04:08:04;;;;;;;1.23;0.30;;;17.30;99.90;;;;;;5036211;28;20391;-73
2022/05/19 04:10:29;;;;;;;2.75;0.40;;;17.30;99.90;;;;;;5037174;28;20022;-73
2022/05/19 04:12:56;;;;;;;2.88;0.20;;;17.20;99.90;;;;;;5037483;28;20022;-73
2022/05/19 04:15:21;;;;;;;4.18;0.40;;;17.10;99.90;;;;;;5037409;28;20029;-73
2022/05/19 04:17:47;;;;;;;1.88;0.17;;;17.10;99.90;;;;;;5036028;28;20032;-73
2022/05/19 04:20:14;;;;;;;4.80;0.30;;;17.10;99.90;;;;;;5037340;28;20026;-73
2022/05/19 04:22:40;;;;;;;1.20;0.10;;;17.10;99.90;;;;;;5036980;28;20085;-73
2022/05/19 04:25:08;;;;;;;1.52;0.73;;;17.20;99.90;;;;;;5036666;28;20029;-73
2022/05/19 04:27:34;;;;;;;2.78;0.50;;;17.20;99.90;;;;;;5037016;28;20029;-73
2022/05/19 04:30:00;;;;;;;2.15;0.30;;;17.20;99.90;;;;;;5035139;28;20033;-73
2022/05/19 04:32:26;;;;;;;3.78;0.10;;;17.10;99.90;;;;;;5036438;28;20522;-73
2022/05/19 04:34:52;;;;;;;1.85;0.30;;;17.10;99.90;;;;;;5036992;28;20021;-74
2022/05/19 04:37:17;;;;;;;3.45;0.30;;;17.10;99.90;;;;;;5036370;28;20026;-73
2022/05/19 04:39:43;;;;;;;2.00;0.35;;;17.10;99.90;;;;;;5036205;28;20021;-73
2022/05/19 04:42:11;;;;;;;2.40;0.55;;;17.10;99.90;;;;;;5035875;28;20358;-74
2022/05/19 04:44:37;;;;;;;2.22;0.63;;;17.10;99.90;;;;;;5036470;28;20025;-74
2022/05/19 04:47:04;;;;;;;3.50;0.17;;;17.00;99.90;;;;;;5036633;28;20026;-74
2022/05/19 04:49:30;;;;;;;3.67;0.10;;;17.00;99.90;;;;;;5037522;28;20048;-73
2022/05/19 04:51:56;;;;;;;1.67;0.30;;;17.00;99.90;;;;;;5036640;28;20450;-73
2022/05/19 04:54:21;;;;;;;5.35;0.73;;;17.00;99.90;;;;;;5036678;28;20049;-73
2022/05/19 04:56:47;;;;;;;4.93;0.85;;;17.00;99.90;;;;;;5036852;28;20030;-73
2022/05/19 04:59:15;;;;;;;1.38;0.20;;;17.10;99.90;;;;;;5036380;28;20021;-73
2022/05/19 05:01:43;;;;;;;1.65;0.57;;;17.00;99.90;;;;;;5036554;28;20029;-73
2022/05/19 05:04:09;;;;;;;1.83;0.70;;;17.10;99.90;;;;;;5035207;28;20026;-73
2022/05/19 05:06:34;;;;;;;0.73;0.50;;;17.10;99.90;;;;;;5036683;28;20025;-73
2022/05/19 05:09:01;;;;;;;3.70;0.40;;;17.20;99.90;;;;;;5036904;28;20032;-73
2022/05/19 05:11:26;;;;;;;1.65;0.47;;;17.30;99.90;;;;;;5037306;28;20052;-73
2022/05/19 05:13:52;;;;;;;2.55;0.60;;;17.40;99.90;;;;;;5035987;28;20397;-74
2022/05/19 05:16:17;;;;;;;2.10;0.40;;;17.50;99.90;;;;;;5035863;28;20040;-74
2022/05/19 05:18:43;;;;;;;1.60;0.52;;;17.70;99.90;;;;;;5036347;28;20033;-74
2022/05/19 05:21:13;;;;;;;0.93;0.20;;;17.60;99.90;;;;;;5035728;28;20017;-75
2022/05/19 05:23:42;;;;;;;2.05;0.30;;;17.70;99.90;;;;;;5035212;28;20067;-74
2022/05/19 05:26:08;;;;;;;2.75;0.40;;;17.80;99.90;;;;;;5035371;28;20079;-74
2022/05/19 05:28:35;;;;;;;1.48;0.25;;;17.80;99.90;;;;;;5035669;28;20099;-74
2022/05/19 05:31:01;;;;;;;3.45;0.55;;;17.80;99.90;;;;;;5035277;28;20032;-74
2022/05/19 05:33:27;;;;;;;3.55;0.17;;;17.70;99.90;;;;;;5035223;28;20033;-73
2022/05/19 05:35:52;;;;;;;3.53;0.40;;;17.70;99.90;;;;;;5033747;28;20021;-73
2022/05/19 05:38:18;;;;;;;1.23;0.20;;;17.70;99.90;;;;;;5035262;28;20542;-74
2022/05/19 05:40:45;;;;;;;0.82;0.20;;;17.70;99.90;;;;;;5034749;28;20022;-74
2022/05/19 05:43:13;;;;;;;7.22;0.65;;;17.60;99.90;;;;;;5034983;28;20070;-74
2022/05/19 05:45:40;;;;;;;3.40;0.45;;;17.60;99.90;;;;;;5034883;28;20029;-74
2022/05/19 05:48:06;;;;;;;1.27;0.22;;;17.60;99.90;;;;;;5035418;28;20075;-75
2022/05/19 05:50:32;;;;;;;0.68;0.13;;;17.60;99.90;;;;;;5034653;28;20025;-76
2022/05/19 05:52:59;;;;;;;4.53;0.85;;;17.70;99.90;;;;;;5034925;28;20029;-75
2022/05/19 05:55:24;;;;;;;2.20;0.63;;;17.70;99.90;;;;;;5033337;28;20101;-76
2022/05/19 05:57:50;;;;;;;3.10;1.20;;;17.80;99.90;;;;;;5032829;28;20056;-75
2022/05/19 06:00:17;;;;;;;1.85;0.10;;;17.90;99.90;;;;;;5034887;28;20025;-74
2022/05/19 06:02:42;;;;;;;4.03;0.82;;;17.90;99.90;;;;;;5034168;28;20052;-74
2022/05/19 06:05:09;;;;;;;2.92;0.30;;;18.00;99.90;;;;;;5034705;28;20013;-75
2022/05/19 06:07:35;;;;;;;3.25;0.30;;;18.10;99.90;;;;;;5033129;28;20021;-75
2022/05/19 06:10:01;;;;;;;1.80;0.60;;;18.10;99.90;;;;;;5034345;28;20550;-74
2022/05/19 06:12:26;;;;;;;2.22;0.68;;;18.10;99.90;;;;;;5034195;28;20037;-74
2022/05/19 06:14:56;;;;;;;6.85;0.98;;;18.20;99.90;;;;;;5034254;28;20075;-75
2022/05/19 06:17:23;;;;;;;4.40;0.52;;;18.20;99.90;;;;;;5035837;28;20096;-75
2022/05/19 06:19:49;;;;;;;1.55;0.70;;;18.30;99.90;;;;;;5034692;28;20100;-78
2022/05/19 06:22:15;;;;;;;5.22;0.77;;;18.30;99.90;;;;;;5036238;28;20021;-81
2022/05/19 06:24:41;;;;;;;1.05;0.57;;;18.60;99.90;;;;;;5035395;28;20496;-77
2022/05/19 06:27:07;;;;;;;2.25;0.82;;;18.50;99.90;;;;;;5037154;28;20033;-78
2022/05/19 06:29:32;;;;;;;2.33;0.22;;;18.50;99.90;;;;;;5052120;23;20511;-76
2022/05/19 06:31:58;;;;;;;2.20;0.70;;;18.60;99.90;;;;;;5055158;28;20025;-76
2022/05/19 06:34:24;;;;;;;2.90;0.43;;;18.60;99.90;;;;;;5054045;28;20382;-76
2022/05/19 06:36:50;;;;;;;1.33;0.85;;;18.60;99.90;;;;;;5055151;28;20401;-76
2022/05/19 06:39:19;;;;;;;3.15;0.88;;;18.50;99.90;;;;;;5055444;28;20108;-77
2022/05/19 06:42:03;;;;;;;2.58;0.90;;;18.50;99.90;;;;;;5055247;28;20399;-78
2022/05/19 06:44:35;;;;;;;2.47;0.98;;;18.50;99.90;;;;;;5054440;28;20013;-78
2022/05/19 06:47:02;;;;;;;2.65;0.82;;;18.50;99.90;;;;;;5054292;28;20021;-75
2022/05/19 06:49:27;;;;;;;2.42;0.90;;;18.60;99.90;;;;;;5053924;28;20047;-75
2022/05/19 06:51:53;;;;;;;1.55;0.85;;;18.60;99.90;;;;;;5055356;28;20029;-75
2022/05/19 06:54:21;;;;;;;2.00;1.10;;;18.70;99.90;;;;;;5052670;28;20032;-75
2022/05/19 06:56:46;;;;;;;2.80;1.10;;;18.80;99.90;;;;;;5054007;28;20021;-75
2022/05/19 06:59:15;;;;;;;3.80;1.30;;;18.90;99.90;;;;;;5053556;28;20021;-75
2022/05/19 07:01:41;;;;;;;3.05;0.85;;;19.10;99.90;;;;;;5053512;28;20383;-75
2022/05/19 07:04:07;;;;;;;1.55;0.70;;;19.10;99.90;;;;;;5053347;28;20025;-75
2022/05/19 07:06:33;;;;;;;3.67;1.35;;;19.20;99.90;;;;;;5053354;28;20048;-75
2022/05/19 07:08:58;;;;;;;3.10;1.15;;;19.30;99.90;;;;;;5056584;28;20021;-75
2022/05/19 07:11:27;;;;;;;1.30;0.80;;;19.40;99.90;;;;;;5055007;28;20048;-75
2022/05/19 07:13:57;;;;;;;;;;;19.50;99.90;;;;;;5049371;28;20025;-74
2022/05/19 07:16:23;;;;;;;2.95;0.95;;;19.60;99.90;;;;;;5066835;28;19904;-74
2022/05/19 07:18:49;;;;;;;4.50;1.20;;;19.70;99.90;;;;;;5068255;28;20035;-74
2022/05/19 07:21:18;;;;;;;3.13;1.15;;;19.80;99.90;;;;;;5070239;28;20017;-77
2022/05/19 07:23:46;;;;;;;2.97;0.93;;;19.80;99.90;;;;;;5066026;28;20016;-75
2022/05/19 07:26:12;;;;;;;1.57;0.40;;;20.00;99.90;;;;;;5067307;28;20013;-75
2022/05/19 07:28:38;;;;;;;2.03;0.43;;;20.10;99.90;;;;;;5067127;28;20520;-75
2022/05/19 07:31:04;;;;;;;3.42;1.17;;;20.20;99.90;;;;;;5066867;28;20017;-74
2022/05/19 07:33:34;;;;;;;1.27;0.57;;;20.20;99.90;;;;;;5077257;28;20553;-75
2022/05/19 07:36:00;;;;;;;1.40;0.52;;;20.30;99.90;;;;;;5091493;28;20056;-77
2022/05/19 07:38:26;;;;;;;1.77;0.52;;;20.30;99.90;;;;;;5077950;28;20471;-75
2022/05/19 07:40:54;;;;;;;2.15;1.00;;;20.40;99.90;;;;;;5064958;28;20024;-75
2022/05/19 07:43:39;;;;;;;3.65;0.45;;;20.50;99.90;;;;;;5059152;28;20028;-75
2022/05/19 07:46:06;;;;;;;2.58;0.73;;;20.60;99.90;;;;;;5057335;28;20029;-75
2022/05/19 07:48:33;;;;;;;1.75;0.55;;;20.70;99.90;;;;;;5057940;28;20456;-75
2022/05/19 07:50:59;;;;;;;3.45;0.40;;;20.80;99.90;;;;;;5057543;28;20479;-75
2022/05/19 07:53:25;;;;;;;1.63;0.38;;;20.90;99.90;;;;;;5059287;28;20025;-75
2022/05/19 07:55:51;;;;;;;2.65;0.50;;;20.90;99.90;;;;;;5057103;28;20111;-75
2022/05/19 07:58:16;;;;;;;2.95;0.60;;;20.90;99.90;;;;;;5055533;28;20522;-75
2022/05/19 08:00:42;;;;;;;1.65;0.30;;;21.00;99.90;;;;;;5056826;28;20094;-75
2022/05/19 08:03:08;;;;;;;1.23;0.40;;;21.10;99.90;;;;;;5055803;28;20029;-75
2022/05/19 08:05:33;;;;;;;2.28;0.52;;;21.10;99.90;;;;;;5055698;28;20112;-75
2022/05/19 08:07:59;;;;;;;2.55;0.35;;;21.20;99.90;;;;;;5058821;28;20017;-75
2022/05/19 08:10:24;;;;;;;1.13;0.25;;;21.30;99.90;;;;;;5040793;28;20496;-75
2022/05/19 08:15:39;;;;;;;0.88;0.40;;;21.70;99.90;;;;;;5037556;28;20059;-75
2022/05/19 08:18:10;;;;;;;2.70;0.50;;;21.90;99.90;;;;;;5053045;28;20036;-75
2022/05/19 08:20:39;;;;;;;0.90;0.15;;;21.90;99.90;;;;;;5055654;28;20056;-75
2022/05/19 08:23:07;;;;;;;1.13;0.20;;;22.00;99.90;;;;;;5066067;28;20041;-75
2022/05/19 08:25:33;;;;;;;1.80;0.65;;;22.20;99.90;;;;;;5077092;28;20092;-75
2022/05/19 08:27:59;;;;;;;1.15;0.20;;;22.20;99.90;;;;;;5076080;28;20021;-75
2022/05/19 08:30:25;;;;;;;0.93;0.20;;;22.20;99.90;;;;;;5076824;28;20039;-74
2022/05/19 08:32:51;;;;;;;1.33;0.52;;;22.20;99.90;;;;;;5077429;28;20029;-76
2022/05/19 08:35:17;;;;;;;1.20;0.20;;;22.20;99.90;;;;;;5077446;28;20024;-75
2022/05/19 08:37:43;;;;;;;1.50;0.38;;;22.30;99.90;;;;;;5092621;28;20402;-76
2022/05/19 08:40:11;;;;;;;0.90;0.20;;;22.30;99.90;;;;;;5076840;28;20029;-75
2022/05/19 08:42:41;;;;;;;3.30;0.93;;;22.30;99.90;;;;;;5076843;28;20023;-77
2022/05/19 08:45:18;;;;;;;2.22;0.35;;;22.30;99.90;;;;;;5074814;28;20497;-77
2022/05/19 08:47:47;;;;;;;1.10;0.40;;;22.20;99.90;;;;;;5076082;28;20027;-77
2022/05/19 08:50:24;;;;;;;;;;;22.10;99.90;;;;;;5077257;28;20040;-77
2022/05/19 08:52:51;;;;;;;1.25;0.30;;;21.90;99.90;;;;;;5076184;28;19904;-77
2022/05/19 08:55:18;;;;;;;2.05;0.22;;;21.70;99.90;;;;;;5076431;28;20020;-76
2022/05/19 08:57:51;;;;;;;1.15;0.20;;;21.50;99.90;;;;;;5075245;28;20021;-76
2022/05/19 09:00:26;;;;;;;1.90;0.32;;;21.30;99.90;;;;;;5077361;28;20077;-77
2022/05/19 09:03:16;;;;;;;0.85;0.30;;;21.10;99.90;;;;;;5076556;28;20032;-76
2022/05/19 09:06:00;;;;;;;2.35;0.50;;;20.90;99.90;;;;;;5076049;28;20055;-77
2022/05/19 09:08:44;;;;;;;0.60;0.30;;;20.80;99.90;;;;;;5075394;28;20025;-76
2022/05/19 09:11:39;;;;;;;0.82;0.30;;;20.50;99.90;;;;;;5075301;28;20024;-77
2022/05/19 09:14:19;;;;;;;1.35;0.65;;;20.40;99.90;;;;;;5072954;28;20029;-77
2022/05/19 09:16:46;;;;;;;3.42;1.15;;;20.40;99.90;;;;;;5075601;28;20027;-77
2022/05/19 09:19:19;;;;;;;5.60;0.90;;;20.40;99.90;;;;;;5075560;28;20020;-77
2022/05/19 09:21:48;;;;;;;3.53;1.40;;;20.50;99.90;;;;;;5074596;28;20059;-77
2022/05/19 09:24:14;;;;;;;3.50;1.42;;;20.50;99.90;;;;;;5075788;28;20356;-77
2022/05/19 09:26:54;;;;;;;1.38;1.05;;;20.60;99.90;;;;;;5074685;28;20442;-77
2022/05/19 09:29:19;;;;;;;2.67;1.40;;;20.80;99.90;;;;;;5075234;28;20418;-77
2022/05/19 09:32:05;;;;;;;2.13;1.08;;;21.10;99.90;;;;;;5074704;28;20027;-77
2022/05/19 09:34:34;;;;;;;3.03;1.38;;;21.40;99.90;;;;;;5091306;28;20025;-77
2022/05/19 09:37:02;;;;;;;2.13;0.68;;;21.70;99.90;;;;;;5076220;28;20352;-77
2022/05/19 09:39:35;;;;;;;3.40;1.25;;;22.00;99.90;;;;;;5076091;28;20032;-77
2022/05/19 09:42:06;;;;;;;1.55;1.20;;;22.10;99.90;;;;;;5091168;28;20021;-77
2022/05/19 09:44:34;;;;;;;2.40;1.05;;;22.20;99.90;;;;;;5073805;28;20021;-77
2022/05/19 09:47:14;;;;;;;2.42;0.90;;;22.20;99.90;;;;;;5075709;28;20365;-77
2022/05/19 09:49:44;;;;;;;1.85;0.60;;;22.20;99.90;;;;;;5075956;28;20029;-77
2022/05/19 09:52:17;;;;;;;2.33;0.75;;;22.20;99.90;;;;;;5075968;28;20033;-77
2022/05/19 09:54:51;;;;;;;2.88;0.70;;;22.40;99.90;;;;;;5075287;28;20032;-77
2022/05/19 09:57:42;;;;;;;1.35;0.68;;;22.60;99.90;;;;;;5076099;28;20028;-77
2022/05/19 10:00:32;;;;;;;1.25;0.60;;;22.80;99.90;;;;;;5074936;28;20212;-77
2022/05/19 10:03:00;;;;;;;0.93;0.65;;;22.90;99.90;;;;;;5074949;28;20102;-77
2022/05/19 10:05:47;;;;;;;3.65;1.25;;;23.10;99.90;;;;;;5090370;28;20020;-77
2022/05/19 10:08:20;;;;;;;1.13;0.70;;;23.10;99.90;;;;;;5076183;28;20020;-77
2022/05/19 10:11:25;;;;;;;1.23;0.60;;;23.20;99.90;;;;;;5075986;28;20021;-77
2022/05/19 10:13:55;;;;;;;1.05;0.30;;;23.50;99.90;;;;;;5074898;28;20024;-77
2022/05/19 10:16:53;;;;;;;0.63;0.40;;;23.90;99.90;;;;;;5074908;28;20012;-77
2022/05/19 10:19:49;;;;;;;2.15;1.10;;;24.10;99.90;;;;;;5066801;28;20047;-77
2022/05/19 10:22:52;;;;;;;0.43;0.30;;;24.60;99.90;;;;;;5075585;28;20025;-77
2022/05/19 10:25:31;;;;;;;0.47;0.40;;;24.90;99.90;;;;;;5075283;28;20024;-75
2022/05/19 10:31:04;;;;;;;1.10;0.52;;;25.40;99.90;;;;;;5074125;28;20100;-77
2022/05/19 10:34:03;;;;;;;1.42;0.90;;;25.60;99.90;;;;;;5073787;28;20391;-77
2022/05/19 10:36:41;;;;;;;1.15;0.95;;;25.60;99.90;;;;;;5089470;28;20471;-76
2022/05/19 10:39:28;;;;;;;2.17;1.15;;;25.70;99.90;;;;;;5074315;28;20056;-75
2022/05/19 10:42:36;;;;;;;2.10;1.10;;;25.80;99.90;;;;;;5073377;28;20017;-75
2022/05/19 10:45:05;;;;;;;3.75;0.50;;;25.70;99.90;;;;;;5073845;28;20239;-75
2022/05/19 10:47:47;;;;;;;2.35;1.25;;;25.50;99.90;;;;;;5073962;28;20024;-76
2022/05/19 10:50:37;;;;;;;3.45;0.90;;;25.20;99.90;;;;;;5073654;28;20047;-76
2022/05/19 10:53:22;;;;;;;2.50;1.55;;;24.80;99.90;;;;;;5073701;28;20025;-77
2022/05/19 10:56:34;;;;;;;2.45;1.10;;;24.50;99.90;;;;;;5073579;28;20020;-76
2022/05/19 10:59:20;;;;;;;3.95;1.40;;;24.10;99.90;;;;;;5073265;28;20029;-76
2022/05/19 11:02:03;;;;;;;2.60;1.38;;;23.90;99.90;;;;;;5073324;28;20074;-76
2022/05/19 11:05:02;;;;;;;3.20;1.98;;;23.60;99.90;;;;;;5088623;28;20483;-76
2022/05/19 11:07:40;;;;;;;3.08;1.88;;;23.30;99.90;;;;;;5073142;28;20029;-76
2022/05/19 11:10:24;;;;;;;4.15;1.60;;;23.10;99.90;;;;;;5073211;28;20029;-76
2022/05/19 11:13:07;;;;;;;4.57;2.22;;;22.90;99.90;;;;;;5088434;28;20031;-76
2022/05/19 11:15:44;;;;;;;2.80;1.77;;;22.60;99.90;;;;;;5073470;28;20375;-76
2022/05/19 11:18:19;;;;;;;2.33;1.93;;;22.50;99.90;;;;;;5088558;28;20032;-76
2022/05/19 11:21:03;;;;;;;3.60;2.17;;;22.40;99.90;;;;;;5071737;28;20062;-76
2022/05/19 11:23:53;;;;;;;5.78;2.40;;;22.20;99.90;;;;;;5073184;28;20483;-76
2022/05/19 11:26:27;;;;;;;3.95;1.77;;;22.10;99.90;;;;;;5072855;28;20439;-76
2022/05/19 11:29:24;;;;;;;3.92;2.17;;;21.90;99.90;;;;;;5072690;28;20028;-76
2022/05/19 11:32:04;;;;;;;4.95;2.88;;;21.80;99.90;;;;;;5072761;28;20487;-76
2022/05/19 11:34:48;;;;;;;6.72;2.65;;;21.70;99.90;;;;;;5072615;28;20025;-76
2022/05/19 11:37:22;;;;;;;11.65;3.75;;;21.50;99.90;;;;;;5088351;28;20028;-76
2022/05/19 11:40:01;;;;;;;1.58;0.00;;;21.30;99.90;;;;;;5072895;28;20395;-76
2022/05/19 11:42:34;;;;;;;;;;;21.10;99.90;;;;;;5088767;28;20012;-75
2022/05/19 11:45:01;;;;;;;9.50;3.45;;;20.60;99.90;;;;;;5072715;28;19904;-75
2022/05/19 11:56:16;;;;;;;1.15;0.03;;;19.20;99.90;;;;;;5076493;28;20557;-76
2022/05/19 11:58:42;;;;;;;4.03;0.43;;;19.00;99.90;;;;;;5076269;28;20059;-76
2022/05/19 12:01:15;;;;;;;2.90;0.40;;;18.80;99.90;;;;;;5076186;28;20060;-76
2022/05/19 12:04:24;;;;;;;2.17;0.55;;;18.90;99.90;;;;;;5074944;28;20016;-76
2022/05/19 12:07:24;;;;;;;3.92;0.88;;;18.50;99.90;;;;;;5091964;28;20027;-76
2022/05/19 12:09:59;;;;;;;5.20;2.03;;;18.40;99.90;;;;;;5070238;28;20051;-76
2022/05/19 12:12:33;;;;;;;7.20;3.20;;;18.40;99.90;;;;;;5076226;28;20048;-76
2022/05/19 12:15:02;;;;;;;7.95;3.88;;;18.30;99.90;;;;;;5075068;28;20448;-76
2022/05/19 12:17:32;;;;;;;8.73;4.40;;;18.30;99.90;;;;;;5091773;28;20035;-76
2022/05/19 12:20:03;;;;;;;9.73;5.00;;;18.30;99.90;;;;;;5076553;28;20032;-77
2022/05/19 12:22:35;;;;;;;12.95;5.45;;;18.40;99.90;;;;;;5092064;28;20023;-76
2022/05/19 12:25:01;;;;;;;12.13;6.10;;;18.30;99.90;;;;;;5076236;28;20043;-76
2022/05/19 12:27:36;;;;;;;10.38;5.97;;;18.30;99.90;;;;;;5076097;28;20475;-76
2022/05/19 12:33:10;;;;;;;9.15;6.35;;;18.30;99.90;;;;;;5076096;28;20528;-76
2022/05/19 12:35:39;;;;;;;8.00;6.17;;;18.30;99.90;;;;;;5075879;28;20032;-77
2022/05/19 12:38:26;;;;;;;9.18;5.70;;;18.30;99.90;;;;;;5075758;28;20028;-77
2022/05/19 12:40:58;;;;;;;12.45;6.63;;;18.30;99.90;;;;;;5076420;28;20142;-77
2022/05/19 12:43:33;;;;;;;9.50;6.45;;;18.30;99.90;;;;;;5074877;28;20029;-76
2022/05/19 12:46:01;;;;;;;13.55;6.43;;;18.30;99.90;;;;;;5076301;28;20025;-76
2022/05/19 12:48:32;;;;;;;10.63;7.05;;;18.30;99.90;;;;;;5074633;28;20074;-76
2022/05/19 12:51:08;;;;;;;12.60;7.13;;;18.30;99.90;;;;;;5075783;28;20029;-76
2022/05/19 12:53:49;;;;;;;11.82;6.90;;;18.30;99.90;;;;;;5075787;28;20029;-77
2022/05/19 12:56:44;;;;;;;7.70;6.25;;;18.30;99.90;;;;;;5075681;28;20024;-76
2022/05/19 12:59:38;;;;;;;8.98;6.32;;;18.20;99.90;;;;;;5091548;28;20063;-76
2022/05/19 13:02:32;;;;;;;9.55;5.22;;;18.30;99.90;;;;;;5075321;28;20021;-76
2022/05/19 13:05:04;;;;;;;9.10;4.70;;;18.40;99.90;;;;;;5073922;28;20027;-76
2022/05/19 13:07:46;;;;;;;8.20;4.78;;;18.40;99.90;;;;;;5075612;28;20024;-76
2022/05/19 13:10:25;;;;;;;8.00;4.88;;;18.50;99.90;;;;;;5075405;28;20056;-75
2022/05/19 13:12:59;;;;;;;8.25;3.45;;;18.50;99.90;;;;;;5075412;28;20030;-76
2022/05/19 13:15:30;;;;;;;5.90;3.47;;;18.60;99.90;;;;;;5073999;28;20074;-76
2022/05/19 13:17:59;;;;;;;7.35;3.90;;;18.70;99.90;;;;;;5075175;28;20021;-76
2022/05/19 13:20:34;;;;;;;6.03;4.03;;;18.90;99.90;;;;;;5073798;28;20036;-76
2022/05/19 13:23:04;;;;;;;8.75;3.03;;;18.90;99.90;;;;;;5075161;28;20027;-76
2022/05/19 13:25:33;;;;;;;3.80;2.58;;;19.00;99.90;;;;;;5075334;28;20479;-76
2022/05/19 13:30:55;;;;;;;4.57;3.03;;;19.60;99.90;;;;;;5075168;28;20465;-76